sensor_id;sensor_type;location;lat;lon;timestamp;temperature;humidity
6666;DHT22;3369;49.906;8.598;2023-05-07T00:00:25;15.30;99.90
6666;DHT22;3369;49.906;8.598;2023-05-07T00:02:51;15.30;99.90
6666;DHT22;3369;49.906;8.598;2023-05-07T00:05:17;15.40;99.90
6666;DHT22;3369;49.906;8.598;2023-05-07T00:07:43;15.40;99.90
6666;DHT22;3369;49.906;8.598;2023-05-07T00:10:10;15.40;99.90
6666;DHT22;3369;49.906;8.598;2023-05-07T00:12:37;15.40;99.90
6666;DHT22;3369;49.906;8.598;2023-05-07T00:15:03;15.40;99.90
6666;DHT22;3369;49.906;8.598;2023-05-07T00:17:29;15.40;99.90
6666;DHT22;3369;49.906;8.598;2023-05-07T00:19:55;15.40;99.90
6666;DHT22;3369;49.906;8.598;2023-05-07T00:22:21;15.40;99.90
6666;DHT22;3369;49.906;8.598;2023-05-07T00:24:47;15.40;99.90
6666;DHT22;3369;49.906;8.598;2023-05-07T00:27:12;15.40;99.90
6666;DHT22;3369;49.906;8.598;2023-05-07T00:29:38;15.40;99.90
6666;DHT22;3369;49.906;8.598;2023-05-07T00:32:04;15.40;99.90
6666;DHT22;3369;49.906;8.598;2023-05-07T00:34:30;15.30;99.90
6666;DHT22;3369;49.906;8.598;2023-05-07T00:36:55;15.30;99.90
6666;DHT22;3369;49.906;8.598;2023-05-07T00:39:21;15.30;99.90
6666;DHT22;3369;49.906;8.598;2023-05-07T00:41:47;15.20;99.90
6666;DHT22;3369;49.906;8.598;2023-05-07T00:44:13;15.20;99.90
6666;DHT22;3369;49.906;8.598;2023-05-07T00:46:40;15.20;99.90
6666;DHT22;3369;49.906;8.598;2023-05-07T00:49:05;15.20;99.90
6666;DHT22;3369;49.906;8.598;2023-05-07T00:51:32;15.20;99.90
6666;DHT22;3369;49.906;8.598;2023-05-07T00:53:59;15.20;99.90
6666;DHT22;3369;49.906;8.598;2023-05-07T00:56:25;15.10;99.90
6666;DHT22;3369;49.906;8.598;2023-05-07T00:58:50;15.10;99.90
6666;DHT22;3369;49.906;8.598;2023-05-07T01:01:16;15.10;99.90
6666;DHT22;3369;49.906;8.598;2023-05-07T01:03:42;15.10;99.90
6666;DHT22;3369;49.906;8.598;2023-05-07T01:06:09;15.10;99.90
6666;DHT22;3369;49.906;8.598;2023-05-07T01:29:57;14.70;99.90
6666;DHT22;3369;49.906;8.598;2023-05-07T01:32:33;14.70;99.90
6666;DHT22;3369;49.906;8.598;2023-05-07T01:35:02;14.70;99.90
6666;DHT22;3369;49.906;8.598;2023-05-07T01:37:29;14.60;99.90
6666;DHT22;3369;49.906;8.598;2023-05-07T01:39:55;14.60;99.90
6666;DHT22;3369;49.906;8.598;2023-05-07T01:42:21;14.60;99.90
6666;DHT22;3369;49.906;8.598;2023-05-07T01:44:47;14.60;99.90
6666;DHT22;3369;49.906;8.598;2023-05-07T01:47:14;14.60;99.90
6666;DHT22;3369;49.906;8.598;2023-05-07T01:49:40;14.60;99.90
6666;DHT22;3369;49.906;8.598;2023-05-07T01:52:07;14.60;99.90
6666;DHT22;3369;49.906;8.598;2023-05-07T01:54:32;14.60;99.90
6666;DHT22;3369;49.906;8.598;2023-05-07T01:56:58;14.60;99.90
6666;DHT22;3369;49.906;8.598;2023-05-07T01:59:24;14.60;99.90
6666;DHT22;3369;49.906;8.598;2023-05-07T02:01:49;14.60;99.90
6666;DHT22;3369;49.906;8.598;2023-05-07T02:04:15;14.60;99.90
6666;DHT22;3369;49.906;8.598;2023-05-07T02:06:40;14.60;99.90
6666;DHT22;3369;49.906;8.598;2023-05-07T02:09:06;14.60;99.90
6666;DHT22;3369;49.906;8.598;2023-05-07T02:11:32;14.60;99.90
6666;DHT22;3369;49.906;8.598;2023-05-07T02:13:58;14.60;99.90
6666;DHT22;3369;49.906;8.598;2023-05-07T02:16:23;14.60;99.90
6666;DHT22;3369;49.906;8.598;2023-05-07T02:18:49;14.60;99.90
6666;DHT22;3369;49.906;8.598;2023-05-07T02:21:15;14.60;99.90
6666;DHT22;3369;49.906;8.598;2023-05-07T02:23:40;14.50;99.90
6666;DHT22;3369;49.906;8.598;2023-05-07T02:26:06;14.50;99.90
6666;DHT22;3369;49.906;8.598;2023-05-07T02:28:32;14.50;99.90
6666;DHT22;3369;49.906;8.598;2023-05-07T02:30:58;14.40;99.90
6666;DHT22;3369;49.906;8.598;2023-05-07T02:33:25;14.40;99.90
6666;DHT22;3369;49.906;8.598;2023-05-07T02:35:51;14.40;99.90
6666;DHT22;3369;49.906;8.598;2023-05-07T02:38:17;14.40;99.90
6666;DHT22;3369;49.906;8.598;2023-05-07T02:40:43;14.40;99.90
6666;DHT22;3369;49.906;8.598;2023-05-07T02:43:09;14.40;99.90
6666;DHT22;3369;49.906;8.598;2023-05-07T02:45:35;14.30;99.90
6666;DHT22;3369;49.906;8.598;2023-05-07T02:48:01;14.30;99.90
6666;DHT22;3369;49.906;8.598;2023-05-07T02:50:27;14.40;99.90
6666;DHT22;3369;49.906;8.598;2023-05-07T02:52:52;14.40;99.90
6666;DHT22;3369;49.906;8.598;2023-05-07T02:55:18;14.30;99.90
6666;DHT22;3369;49.906;8.598;2023-05-07T02:57:44;14.30;99.90
6666;DHT22;3369;49.906;8.598;2023-05-07T03:00:11;14.30;99.90
6666;DHT22;3369;49.906;8.598;2023-05-07T03:02:37;14.40;99.90
6666;DHT22;3369;49.906;8.598;2023-05-07T03:05:03;14.40;99.90
6666;DHT22;3369;49.906;8.598;2023-05-07T03:07:29;14.40;99.90
6666;DHT22;3369;49.906;8.598;2023-05-07T03:09:54;14.40;99.90
6666;DHT22;3369;49.906;8.598;2023-05-07T03:12:20;14.40;99.90
6666;DHT22;3369;49.906;8.598;2023-05-07T03:14:46;14.40;99.90
6666;DHT22;3369;49.906;8.598;2023-05-07T03:17:11;14.40;99.90
6666;DHT22;3369;49.906;8.598;2023-05-07T03:19:37;14.40;99.90
6666;DHT22;3369;49.906;8.598;2023-05-07T03:22:02;14.40;99.90
6666;DHT22;3369;49.906;8.598;2023-05-07T03:24:28;14.40;99.90
6666;DHT22;3369;49.906;8.598;2023-05-07T03:26:54;14.40;99.90
6666;DHT22;3369;49.906;8.598;2023-05-07T03:29:19;14.40;99.90
6666;DHT22;3369;49.906;8.598;2023-05-07T03:31:45;14.40;99.90
6666;DHT22;3369;49.906;8.598;2023-05-07T03:34:10;14.40;99.90
6666;DHT22;3369;49.906;8.598;2023-05-07T03:36:36;14.40;99.90
6666;DHT22;3369;49.906;8.598;2023-05-07T03:39:02;14.30;99.90
6666;DHT22;3369;49.906;8.598;2023-05-07T03:41:28;14.30;99.90
6666;DHT22;3369;49.906;8.598;2023-05-07T03:43:54;14.30;99.90
6666;DHT22;3369;49.906;8.598;2023-05-07T03:46:20;14.30;99.90
6666;DHT22;3369;49.906;8.598;2023-05-07T03:48:46;14.30;99.90
6666;DHT22;3369;49.906;8.598;2023-05-07T03:51:11;14.30;99.90
6666;DHT22;3369;49.906;8.598;2023-05-07T03:53:37;14.30;99.90
6666;DHT22;3369;49.906;8.598;2023-05-07T03:56:03;14.20;99.90
6666;DHT22;3369;49.906;8.598;2023-05-07T03:58:28;14.30;99.90
6666;DHT22;3369;49.906;8.598;2023-05-07T04:00:54;14.30;99.90
6666;DHT22;3369;49.906;8.598;2023-05-07T04:03:19;14.20;99.90
6666;DHT22;3369;49.906;8.598;2023-05-07T04:05:45;14.20;99.90
6666;DHT22;3369;49.906;8.598;2023-05-07T04:08:11;14.20;99.90
6666;DHT22;3369;49.906;8.598;2023-05-07T04:10:36;14.20;99.90
6666;DHT22;3369;49.906;8.598;2023-05-07T04:13:02;14.20;99.90
6666;DHT22;3369;49.906;8.598;2023-05-07T04:15:27;14.20;99.90
6666;DHT22;3369;49.906;8.598;2023-05-07T04:17:53;14.20;99.90
6666;DHT22;3369;49.906;8.598;2023-05-07T04:20:18;14.20;99.90
6666;DHT22;3369;49.906;8.598;2023-05-07T04:22:45;14.20;99.90
6666;DHT22;3369;49.906;8.598;2023-05-07T04:25:10;14.20;99.90
6666;DHT22;3369;49.906;8.598;2023-05-07T04:27:36;14.20;99.90
6666;DHT22;3369;49.906;8.598;2023-05-07T04:30:02;14.30;99.90
6666;DHT22;3369;49.906;8.598;2023-05-07T04:32:28;14.30;99.90
6666;DHT22;3369;49.906;8.598;2023-05-07T04:34:55;14.30;99.90
6666;DHT22;3369;49.906;8.598;2023-05-07T04:37:21;14.30;99.90
6666;DHT22;3369;49.906;8.598;2023-05-07T04:39:46;14.30;99.90
6666;DHT22;3369;49.906;8.598;2023-05-07T04:42:16;14.30;99.90
6666;DHT22;3369;49.906;8.598;2023-05-07T04:44:44;14.30;99.90
6666;DHT22;3369;49.906;8.598;2023-05-07T04:47:10;14.30;99.90
6666;DHT22;3369;49.906;8.598;2023-05-07T04:49:36;14.30;99.90
6666;DHT22;3369;49.906;8.598;2023-05-07T04:52:02;14.30;99.90
6666;DHT22;3369;49.906;8.598;2023-05-07T04:54:28;14.40;99.90
6666;DHT22;3369;49.906;8.598;2023-05-07T04:56:55;14.30;99.90
6666;DHT22;3369;49.906;8.598;2023-05-07T04:59:20;14.40;99.90
6666;DHT22;3369;49.906;8.598;2023-05-07T05:01:46;14.40;99.90
6666;DHT22;3369;49.906;8.598;2023-05-07T05:04:12;14.40;99.90
6666;DHT22;3369;49.906;8.598;2023-05-07T05:06:38;14.40;99.90
6666;DHT22;3369;49.906;8.598;2023-05-07T05:09:04;14.40;99.90
6666;DHT22;3369;49.906;8.598;2023-05-07T05:11:30;14.40;99.90
6666;DHT22;3369;49.906;8.598;2023-05-07T05:13:56;14.50;99.90
6666;DHT22;3369;49.906;8.598;2023-05-07T05:16:22;14.50;99.90
6666;DHT22;3369;49.906;8.598;2023-05-07T05:18:47;14.50;99.90
6666;DHT22;3369;49.906;8.598;2023-05-07T05:21:13;14.50;99.90
6666;DHT22;3369;49.906;8.598;2023-05-07T05:23:39;14.60;99.90
6666;DHT22;3369;49.906;8.598;2023-05-07T05:26:04;14.60;99.90
6666;DHT22;3369;49.906;8.598;2023-05-07T05:28:30;14.70;99.90
6666;DHT22;3369;49.906;8.598;2023-05-07T05:30:56;14.70;99.90
6666;DHT22;3369;49.906;8.598;2023-05-07T05:33:21;14.80;99.90
6666;DHT22;3369;49.906;8.598;2023-05-07T05:35:47;14.80;99.90
6666;DHT22;3369;49.906;8.598;2023-05-07T05:38:13;14.80;99.90
6666;DHT22;3369;49.906;8.598;2023-05-07T05:40:38;14.90;99.90
6666;DHT22;3369;49.906;8.598;2023-05-07T05:43:05;14.90;99.90
6666;DHT22;3369;49.906;8.598;2023-05-07T05:45:31;14.90;99.90
6666;DHT22;3369;49.906;8.598;2023-05-07T05:47:56;15.00;99.90
6666;DHT22;3369;49.906;8.598;2023-05-07T05:50:22;15.10;99.90
6666;DHT22;3369;49.906;8.598;2023-05-07T05:52:48;15.10;99.90
6666;DHT22;3369;49.906;8.598;2023-05-07T05:55:14;15.20;99.90
6666;DHT22;3369;49.906;8.598;2023-05-07T05:57:40;15.20;99.90
6666;DHT22;3369;49.906;8.598;2023-05-07T06:00:06;15.20;99.90
6666;DHT22;3369;49.906;8.598;2023-05-07T06:02:33;15.30;99.90
6666;DHT22;3369;49.906;8.598;2023-05-07T06:04:58;15.30;99.90
6666;DHT22;3369;49.906;8.598;2023-05-07T06:07:25;15.40;99.90
6666;DHT22;3369;49.906;8.598;2023-05-07T06:09:50;15.40;99.90
6666;DHT22;3369;49.906;8.598;2023-05-07T06:12:16;15.40;99.90
6666;DHT22;3369;49.906;8.598;2023-05-07T06:14:45;15.50;99.90
6666;DHT22;3369;49.906;8.598;2023-05-07T06:17:10;15.60;99.90
6666;DHT22;3369;49.906;8.598;2023-05-07T06:19:36;15.60;99.90
6666;DHT22;3369;49.906;8.598;2023-05-07T06:22:02;15.70;99.90
6666;DHT22;3369;49.906;8.598;2023-05-07T06:24:28;15.70;99.90
6666;DHT22;3369;49.906;8.598;2023-05-07T06:26:54;15.70;99.90
6666;DHT22;3369;49.906;8.598;2023-05-07T06:29:20;15.80;99.90
6666;DHT22;3369;49.906;8.598;2023-05-07T06:31:45;15.80;99.90
6666;DHT22;3369;49.906;8.598;2023-05-07T06:34:11;15.80;99.90
6666;DHT22;3369;49.906;8.598;2023-05-07T06:36:40;15.90;99.90
6666;DHT22;3369;49.906;8.598;2023-05-07T06:39:06;15.90;99.90
6666;DHT22;3369;49.906;8.598;2023-05-07T06:41:31;16.00;99.90
6666;DHT22;3369;49.906;8.598;2023-05-07T06:43:57;16.10;99.90
6666;DHT22;3369;49.906;8.598;2023-05-07T06:46:22;16.10;99.90
6666;DHT22;3369;49.906;8.598;2023-05-07T06:48:48;16.10;99.90
6666;DHT22;3369;49.906;8.598;2023-05-07T07:13:16;16.20;99.90
6666;DHT22;3369;49.906;8.598;2023-05-07T07:15:43;16.20;99.90
6666;DHT22;3369;49.906;8.598;2023-05-07T07:18:09;16.20;99.90
6666;DHT22;3369;49.906;8.598;2023-05-07T07:20:35;16.20;99.90
6666;DHT22;3369;49.906;8.598;2023-05-07T07:23:00;16.30;99.90
6666;DHT22;3369;49.906;8.598;2023-05-07T07:25:26;16.30;99.90
6666;DHT22;3369;49.906;8.598;2023-05-07T07:27:51;16.30;99.90
6666;DHT22;3369;49.906;8.598;2023-05-07T07:30:17;16.30;99.90
6666;DHT22;3369;49.906;8.598;2023-05-07T07:32:43;16.40;99.90
6666;DHT22;3369;49.906;8.598;2023-05-07T07:35:09;16.40;99.90
6666;DHT22;3369;49.906;8.598;2023-05-07T07:37:35;16.50;99.90
6666;DHT22;3369;49.906;8.598;2023-05-07T07:40:01;16.60;99.90
6666;DHT22;3369;49.906;8.598;2023-05-07T07:42:26;16.60;99.90
6666;DHT22;3369;49.906;8.598;2023-05-07T07:44:52;16.70;99.90
6666;DHT22;3369;49.906;8.598;2023-05-07T07:47:17;16.70;99.90
6666;DHT22;3369;49.906;8.598;2023-05-07T07:49:43;16.80;99.90
6666;DHT22;3369;49.906;8.598;2023-05-07T07:52:09;16.80;99.90
6666;DHT22;3369;49.906;8.598;2023-05-07T07:54:34;16.90;99.90
6666;DHT22;3369;49.906;8.598;2023-05-07T07:57:00;16.90;99.90
6666;DHT22;3369;49.906;8.598;2023-05-07T07:59:26;17.00;99.90
6666;DHT22;3369;49.906;8.598;2023-05-07T08:01:52;17.00;99.90
6666;DHT22;3369;49.906;8.598;2023-05-07T08:04:21;17.00;99.90
6666;DHT22;3369;49.906;8.598;2023-05-07T08:06:46;17.10;99.90
6666;DHT22;3369;49.906;8.598;2023-05-07T08:09:12;17.10;99.90
6666;DHT22;3369;49.906;8.598;2023-05-07T08:11:38;17.10;99.90
6666;DHT22;3369;49.906;8.598;2023-05-07T08:14:04;17.10;99.90
6666;DHT22;3369;49.906;8.598;2023-05-07T08:16:30;17.20;99.90
6666;DHT22;3369;49.906;8.598;2023-05-07T08:18:56;17.20;99.90
6666;DHT22;3369;49.906;8.598;2023-05-07T08:21:22;17.30;99.90
6666;DHT22;3369;49.906;8.598;2023-05-07T08:23:48;17.30;99.90
6666;DHT22;3369;49.906;8.598;2023-05-07T08:26:14;17.40;99.90
6666;DHT22;3369;49.906;8.598;2023-05-07T08:28:40;17.40;99.90
6666;DHT22;3369;49.906;8.598;2023-05-07T08:31:05;17.50;99.90
6666;DHT22;3369;49.906;8.598;2023-05-07T08:33:31;17.60;99.90
6666;DHT22;3369;49.906;8.598;2023-05-07T08:35:57;17.60;99.90
6666;DHT22;3369;49.906;8.598;2023-05-07T08:38:22;17.70;99.90
6666;DHT22;3369;49.906;8.598;2023-05-07T08:40:48;17.70;99.90
6666;DHT22;3369;49.906;8.598;2023-05-07T08:43:14;17.80;99.90
6666;DHT22;3369;49.906;8.598;2023-05-07T08:45:40;17.80;99.90
6666;DHT22;3369;49.906;8.598;2023-05-07T08:48:14;17.80;99.90
6666;DHT22;3369;49.906;8.598;2023-05-07T08:50:40;17.90;99.90
6666;DHT22;3369;49.906;8.598;2023-05-07T08:53:06;17.90;99.90
6666;DHT22;3369;49.906;8.598;2023-05-07T08:55:32;18.00;99.90
6666;DHT22;3369;49.906;8.598;2023-05-07T08:57:59;18.10;99.90
6666;DHT22;3369;49.906;8.598;2023-05-07T09:00:25;18.10;99.90
6666;DHT22;3369;49.906;8.598;2023-05-07T09:02:53;18.20;99.90
6666;DHT22;3369;49.906;8.598;2023-05-07T09:05:19;18.30;99.90
6666;DHT22;3369;49.906;8.598;2023-05-07T09:07:45;18.30;99.90
6666;DHT22;3369;49.906;8.598;2023-05-07T09:10:12;18.40;99.90
6666;DHT22;3369;49.906;8.598;2023-05-07T09:12:38;18.50;99.90
6666;DHT22;3369;49.906;8.598;2023-05-07T09:15:05;18.50;99.90
6666;DHT22;3369;49.906;8.598;2023-05-07T09:17:31;18.60;99.90
6666;DHT22;3369;49.906;8.598;2023-05-07T09:19:56;18.70;99.90
6666;DHT22;3369;49.906;8.598;2023-05-07T09:22:27;18.80;99.90
6666;DHT22;3369;49.906;8.598;2023-05-07T09:24:52;18.90;99.90
6666;DHT22;3369;49.906;8.598;2023-05-07T09:27:18;19.00;99.90
6666;DHT22;3369;49.906;8.598;2023-05-07T09:29:44;19.00;99.90
6666;DHT22;3369;49.906;8.598;2023-05-07T09:32:10;19.10;99.90
6666;DHT22;3369;49.906;8.598;2023-05-07T09:34:36;19.20;99.90
6666;DHT22;3369;49.906;8.598;2023-05-07T09:37:03;19.30;99.90
6666;DHT22;3369;49.906;8.598;2023-05-07T09:39:43;19.40;99.90
6666;DHT22;3369;49.906;8.598;2023-05-07T09:42:08;19.60;99.90
6666;DHT22;3369;49.906;8.598;2023-05-07T09:44:35;19.70;99.90
6666;DHT22;3369;49.906;8.598;2023-05-07T09:47:04;19.70;99.90
6666;DHT22;3369;49.906;8.598;2023-05-07T09:49:34;19.80;99.90
6666;DHT22;3369;49.906;8.598;2023-05-07T09:52:01;19.80;99.90
6666;DHT22;3369;49.906;8.598;2023-05-07T09:54:27;19.90;99.90
6666;DHT22;3369;49.906;8.598;2023-05-07T09:56:57;20.00;99.90
6666;DHT22;3369;49.906;8.598;2023-05-07T09:59:24;20.10;99.90
6666;DHT22;3369;49.906;8.598;2023-05-07T10:01:52;20.20;99.90
6666;DHT22;3369;49.906;8.598;2023-05-07T10:04:21;20.30;99.90
6666;DHT22;3369;49.906;8.598;2023-05-07T10:06:47;20.40;99.90
6666;DHT22;3369;49.906;8.598;2023-05-07T10:09:13;20.50;99.90
6666;DHT22;3369;49.906;8.598;2023-05-07T10:11:41;20.60;99.90
6666;DHT22;3369;49.906;8.598;2023-05-07T10:14:07;20.70;99.90
6666;DHT22;3369;49.906;8.598;2023-05-07T10:16:33;20.70;99.90
6666;DHT22;3369;49.906;8.598;2023-05-07T10:19:03;20.70;99.90
6666;DHT22;3369;49.906;8.598;2023-05-07T10:21:30;20.80;99.90
6666;DHT22;3369;49.906;8.598;2023-05-07T10:24:16;20.90;99.90
6666;DHT22;3369;49.906;8.598;2023-05-07T10:26:48;20.90;99.90
6666;DHT22;3369;49.906;8.598;2023-05-07T10:29:21;21.00;99.70
6666;DHT22;3369;49.906;8.598;2023-05-07T10:34:42;21.00;99.40
6666;DHT22;3369;49.906;8.598;2023-05-07T10:37:09;21.00;99.30
6666;DHT22;3369;49.906;8.598;2023-05-07T10:39:36;21.10;98.60
6666;DHT22;3369;49.906;8.598;2023-05-07T10:42:12;21.10;98.20
6666;DHT22;3369;49.906;8.598;2023-05-07T10:44:38;21.20;98.80
6666;DHT22;3369;49.906;8.598;2023-05-07T10:49:30;21.60;99.00
6666;DHT22;3369;49.906;8.598;2023-05-07T10:52:22;21.80;98.60
6666;DHT22;3369;49.906;8.598;2023-05-07T10:57:40;22.10;98.20
6666;DHT22;3369;49.906;8.598;2023-05-07T11:05:25;22.50;97.90
6666;DHT22;3369;49.906;8.598;2023-05-07T11:07:56;22.60;97.60
6666;DHT22;3369;49.906;8.598;2023-05-07T11:10:22;22.80;97.30
6666;DHT22;3369;49.906;8.598;2023-05-07T11:12:51;22.90;97.40
6666;DHT22;3369;49.906;8.598;2023-05-07T11:15:38;23.10;97.70
6666;DHT22;3369;49.906;8.598;2023-05-07T11:18:04;23.20;97.60
6666;DHT22;3369;49.906;8.598;2023-05-07T11:21:02;23.30;96.60
6666;DHT22;3369;49.906;8.598;2023-05-07T11:26:05;23.30;95.60
6666;DHT22;3369;49.906;8.598;2023-05-07T11:28:31;23.30;95.70
6666;DHT22;3369;49.906;8.598;2023-05-07T11:31:02;23.40;95.80
6666;DHT22;3369;49.906;8.598;2023-05-07T11:33:28;23.50;95.50
6666;DHT22;3369;49.906;8.598;2023-05-07T11:35:55;23.50;94.80
6666;DHT22;3369;49.906;8.598;2023-05-07T11:38:21;23.60;94.50
6666;DHT22;3369;49.906;8.598;2023-05-07T11:40:57;23.60;94.80
6666;DHT22;3369;49.906;8.598;2023-05-07T11:43:24;23.60;94.80
6666;DHT22;3369;49.906;8.598;2023-05-07T11:45:50;23.60;94.80
6666;DHT22;3369;49.906;8.598;2023-05-07T11:48:16;23.60;93.90
6666;DHT22;3369;49.906;8.598;2023-05-07T11:51:01;23.50;93.20
6666;DHT22;3369;49.906;8.598;2023-05-07T11:53:33;23.40;93.00
6666;DHT22;3369;49.906;8.598;2023-05-07T11:56:00;23.30;92.30
6666;DHT22;3369;49.906;8.598;2023-05-07T11:58:26;23.30;92.60
6666;DHT22;3369;49.906;8.598;2023-05-07T12:00:53;23.30;92.20
6666;DHT22;3369;49.906;8.598;2023-05-07T12:03:19;23.30;91.80
6666;DHT22;3369;49.906;8.598;2023-05-07T12:05:48;23.40;90.90
6666;DHT22;3369;49.906;8.598;2023-05-07T12:08:15;23.40;91.00
6666;DHT22;3369;49.906;8.598;2023-05-07T12:10:45;23.40;91.40
6666;DHT22;3369;49.906;8.598;2023-05-07T12:13:18;23.50;92.10
6666;DHT22;3369;49.906;8.598;2023-05-07T12:15:44;23.70;92.60
6666;DHT22;3369;49.906;8.598;2023-05-07T12:18:13;23.80;93.10
6666;DHT22;3369;49.906;8.598;2023-05-07T12:20:40;24.00;93.20
6666;DHT22;3369;49.906;8.598;2023-05-07T12:23:05;24.10;91.50
6666;DHT22;3369;49.906;8.598;2023-05-07T12:25:42;24.20;91.30
6666;DHT22;3369;49.906;8.598;2023-05-07T12:28:18;24.20;91.50
6666;DHT22;3369;49.906;8.598;2023-05-07T12:30:45;24.30;91.70
6666;DHT22;3369;49.906;8.598;2023-05-07T12:33:11;24.40;91.80
6666;DHT22;3369;49.906;8.598;2023-05-07T12:35:41;24.50;91.60
6666;DHT22;3369;49.906;8.598;2023-05-07T12:38:12;24.60;91.50
6666;DHT22;3369;49.906;8.598;2023-05-07T12:40:38;24.80;91.50
6666;DHT22;3369;49.906;8.598;2023-05-07T12:43:05;24.90;91.30
6666;DHT22;3369;49.906;8.598;2023-05-07T12:45:30;25.00;90.40
6666;DHT22;3369;49.906;8.598;2023-05-07T12:47:57;25.00;89.60
6666;DHT22;3369;49.906;8.598;2023-05-07T12:50:26;25.10;88.00
6666;DHT22;3369;49.906;8.598;2023-05-07T12:52:56;25.10;87.10
6666;DHT22;3369;49.906;8.598;2023-05-07T12:55:21;25.10;86.90
6666;DHT22;3369;49.906;8.598;2023-05-07T12:57:50;25.10;86.90
6666;DHT22;3369;49.906;8.598;2023-05-07T13:00:17;25.00;86.50
6666;DHT22;3369;49.906;8.598;2023-05-07T13:02:43;25.00;86.00
6666;DHT22;3369;49.906;8.598;2023-05-07T13:05:09;24.80;83.90
6666;DHT22;3369;49.906;8.598;2023-05-07T13:07:35;24.70;82.70
6666;DHT22;3369;49.906;8.598;2023-05-07T13:30:02;24.40;84.40
6666;DHT22;3369;49.906;8.598;2023-05-07T13:32:28;24.40;85.30
6666;DHT22;3369;49.906;8.598;2023-05-07T13:34:54;24.50;85.90
6666;DHT22;3369;49.906;8.598;2023-05-07T13:37:19;24.50;85.90
6666;DHT22;3369;49.906;8.598;2023-05-07T13:39:45;24.60;85.90
6666;DHT22;3369;49.906;8.598;2023-05-07T13:42:11;24.70;85.30
6666;DHT22;3369;49.906;8.598;2023-05-07T13:44:36;24.80;85.20
6666;DHT22;3369;49.906;8.598;2023-05-07T13:47:02;24.90;85.50
6666;DHT22;3369;49.906;8.598;2023-05-07T13:49:28;24.90;83.60
6666;DHT22;3369;49.906;8.598;2023-05-07T13:51:53;24.90;84.90
6666;DHT22;3369;49.906;8.598;2023-05-07T13:54:19;24.90;85.40
6666;DHT22;3369;49.906;8.598;2023-05-07T13:56:45;24.90;85.90
6666;DHT22;3369;49.906;8.598;2023-05-07T13:59:10;24.90;86.20
6666;DHT22;3369;49.906;8.598;2023-05-07T14:01:36;24.90;85.90
6666;DHT22;3369;49.906;8.598;2023-05-07T14:04:01;24.90;86.00
6666;DHT22;3369;49.906;8.598;2023-05-07T14:06:27;24.90;85.70
6666;DHT22;3369;49.906;8.598;2023-05-07T14:08:53;24.90;85.80
6666;DHT22;3369;49.906;8.598;2023-05-07T14:11:18;24.90;85.70
6666;DHT22;3369;49.906;8.598;2023-05-07T14:13:44;24.90;85.60
6666;DHT22;3369;49.906;8.598;2023-05-07T14:16:09;24.90;81.70
6666;DHT22;3369;49.906;8.598;2023-05-07T14:18:35;24.90;81.90
6666;DHT22;3369;49.906;8.598;2023-05-07T14:21:02;24.80;82.50
6666;DHT22;3369;49.906;8.598;2023-05-07T14:23:28;24.70;82.90
6666;DHT22;3369;49.906;8.598;2023-05-07T14:25:53;24.60;83.70
6666;DHT22;3369;49.906;8.598;2023-05-07T14:28:19;24.60;84.10
6666;DHT22;3369;49.906;8.598;2023-05-07T14:30:45;24.50;84.10
6666;DHT22;3369;49.906;8.598;2023-05-07T14:33:11;24.50;84.30
6666;DHT22;3369;49.906;8.598;2023-05-07T14:35:36;24.40;84.50
6666;DHT22;3369;49.906;8.598;2023-05-07T14:38:02;24.30;84.30
6666;DHT22;3369;49.906;8.598;2023-05-07T14:40:27;24.30;84.70
6666;DHT22;3369;49.906;8.598;2023-05-07T14:42:53;24.20;84.30
6666;DHT22;3369;49.906;8.598;2023-05-07T14:45:20;24.10;84.80
6666;DHT22;3369;49.906;8.598;2023-05-07T14:47:46;24.10;83.80
6666;DHT22;3369;49.906;8.598;2023-05-07T14:50:11;24.00;83.00
6666;DHT22;3369;49.906;8.598;2023-05-07T14:52:37;23.90;83.30
6666;DHT22;3369;49.906;8.598;2023-05-07T14:55:03;23.80;83.60
6666;DHT22;3369;49.906;8.598;2023-05-07T14:57:29;23.80;83.40
6666;DHT22;3369;49.906;8.598;2023-05-07T14:59:55;23.70;83.30
6666;DHT22;3369;49.906;8.598;2023-05-07T15:02:21;23.70;83.70
6666;DHT22;3369;49.906;8.598;2023-05-07T15:04:46;23.70;82.70
6666;DHT22;3369;49.906;8.598;2023-05-07T15:07:13;23.60;83.10
6666;DHT22;3369;49.906;8.598;2023-05-07T15:09:42;23.60;81.70
6666;DHT22;3369;49.906;8.598;2023-05-07T15:12:08;23.50;81.80
6666;DHT22;3369;49.906;8.598;2023-05-07T15:14:34;23.40;81.50
6666;DHT22;3369;49.906;8.598;2023-05-07T15:17:00;23.40;82.10
6666;DHT22;3369;49.906;8.598;2023-05-07T15:19:25;23.30;80.80
6666;DHT22;3369;49.906;8.598;2023-05-07T15:21:55;23.30;80.80
6666;DHT22;3369;49.906;8.598;2023-05-07T15:24:22;23.10;80.00
6666;DHT22;3369;49.906;8.598;2023-05-07T15:26:48;23.10;81.00
6666;DHT22;3369;49.906;8.598;2023-05-07T15:29:13;23.00;81.30
6666;DHT22;3369;49.906;8.598;2023-05-07T15:31:39;23.00;81.70
6666;DHT22;3369;49.906;8.598;2023-05-07T15:34:05;22.90;82.30
6666;DHT22;3369;49.906;8.598;2023-05-07T15:36:30;22.80;82.50
6666;DHT22;3369;49.906;8.598;2023-05-07T15:38:56;22.80;83.00
6666;DHT22;3369;49.906;8.598;2023-05-07T15:41:22;22.80;83.40
6666;DHT22;3369;49.906;8.598;2023-05-07T15:43:50;22.70;83.30
6666;DHT22;3369;49.906;8.598;2023-05-07T15:46:21;22.60;84.00
6666;DHT22;3369;49.906;8.598;2023-05-07T15:48:48;22.60;84.70
6666;DHT22;3369;49.906;8.598;2023-05-07T15:51:14;22.50;84.80
6666;DHT22;3369;49.906;8.598;2023-05-07T15:53:40;22.50;84.70
6666;DHT22;3369;49.906;8.598;2023-05-07T15:56:06;22.40;84.70
6666;DHT22;3369;49.906;8.598;2023-05-07T15:58:32;22.40;85.10
6666;DHT22;3369;49.906;8.598;2023-05-07T16:00:58;22.40;85.20
6666;DHT22;3369;49.906;8.598;2023-05-07T16:03:26;22.30;89.20
6666;DHT22;3369;49.906;8.598;2023-05-07T16:05:52;22.00;92.20
6666;DHT22;3369;49.906;8.598;2023-05-07T16:08:18;21.60;94.30
6666;DHT22;3369;49.906;8.598;2023-05-07T16:10:43;21.20;96.80
6666;DHT22;3369;49.906;8.598;2023-05-07T16:13:09;20.60;98.80
6666;DHT22;3369;49.906;8.598;2023-05-07T16:15:35;20.00;99.90
6666;DHT22;3369;49.906;8.598;2023-05-07T16:18:01;19.50;99.90
6666;DHT22;3369;49.906;8.598;2023-05-07T16:20:28;19.10;99.90
6666;DHT22;3369;49.906;8.598;2023-05-07T16:22:57;18.80;99.90
6666;DHT22;3369;49.906;8.598;2023-05-07T16:25:23;18.50;99.90
6666;DHT22;3369;49.906;8.598;2023-05-07T16:27:49;18.20;99.90
6666;DHT22;3369;49.906;8.598;2023-05-07T16:30:15;18.00;99.90
6666;DHT22;3369;49.906;8.598;2023-05-07T16:32:41;17.90;99.90
6666;DHT22;3369;49.906;8.598;2023-05-07T16:35:07;17.80;99.90
6666;DHT22;3369;49.906;8.598;2023-05-07T16:37:33;17.60;99.90
6666;DHT22;3369;49.906;8.598;2023-05-07T16:40:02;17.50;99.90
6666;DHT22;3369;49.906;8.598;2023-05-07T16:42:35;17.40;99.90
6666;DHT22;3369;49.906;8.598;2023-05-07T16:45:01;17.30;99.90
6666;DHT22;3369;49.906;8.598;2023-05-07T16:47:27;17.20;99.90
6666;DHT22;3369;49.906;8.598;2023-05-07T16:49:53;17.10;99.90
6666;DHT22;3369;49.906;8.598;2023-05-07T16:52:19;17.10;99.90
6666;DHT22;3369;49.906;8.598;2023-05-07T16:54:45;17.00;99.90
6666;DHT22;3369;49.906;8.598;2023-05-07T16:57:11;17.00;99.90
6666;DHT22;3369;49.906;8.598;2023-05-07T16:59:38;17.00;99.90
6666;DHT22;3369;49.906;8.598;2023-05-07T17:02:03;16.90;99.90
6666;DHT22;3369;49.906;8.598;2023-05-07T17:04:29;16.80;99.90
6666;DHT22;3369;49.906;8.598;2023-05-07T17:06:57;16.70;99.90
6666;DHT22;3369;49.906;8.598;2023-05-07T17:09:22;16.70;99.90
6666;DHT22;3369;49.906;8.598;2023-05-07T17:11:48;16.60;99.90
6666;DHT22;3369;49.906;8.598;2023-05-07T17:14:14;16.60;99.90
6666;DHT22;3369;49.906;8.598;2023-05-07T17:16:39;16.60;99.90